sensor_id;sensor_type;location;lat;lon;timestamp;P1;durP1;ratioP1;P2;durP2;ratioP2
50773;SDS011;36745;48.544;8.918;2022-12-24T00:01:01;12.38;;;5.47;;
50773;SDS011;36745;48.544;8.918;2022-12-24T00:04:21;8.20;;;3.55;;
50773;SDS011;36745;48.544;8.918;2022-12-24T00:07:41;9.52;;;2.50;;
50773;SDS011;36745;48.544;8.918;2022-12-24T00:11:01;10.68;;;1.60;;
50773;SDS011;36745;48.544;8.918;2022-12-24T00:14:21;11.07;;;2.30;;
50773;SDS011;36745;48.544;8.918;2022-12-24T00:17:40;5.93;;;1.30;;
50773;SDS011;36745;48.544;8.918;2022-12-24T00:21:00;11.48;;;1.75;;
50773;SDS011;36745;48.544;8.918;2022-12-24T00:24:22;7.18;;;1.75;;
50773;SDS011;36745;48.544;8.918;2022-12-24T00:27:41;6.75;;;1.77;;
50773;SDS011;36745;48.544;8.918;2022-12-24T00:31:12;8.70;;;1.98;;
50773;SDS011;36745;48.544;8.918;2022-12-24T00:34:34;8.13;;;1.80;;
50773;SDS011;36745;48.544;8.918;2022-12-24T00:37:54;12.80;;;2.35;;
50773;SDS011;36745;48.544;8.918;2022-12-24T00:41:14;6.15;;;2.00;;
50773;SDS011;36745;48.544;8.918;2022-12-24T00:44:43;11.80;;;2.28;;
50773;SDS011;36745;48.544;8.918;2022-12-24T00:48:03;8.90;;;2.72;;
50773;SDS011;36745;48.544;8.918;2022-12-24T00:51:23;13.48;;;4.88;;
50773;SDS011;36745;48.544;8.918;2022-12-24T00:54:43;12.38;;;3.97;;
50773;SDS011;36745;48.544;8.918;2022-12-24T00:58:02;14.13;;;3.42;;
50773;SDS011;36745;48.544;8.918;2022-12-24T01:01:22;8.07;;;3.10;;
50773;SDS011;36745;48.544;8.918;2022-12-24T01:04:43;8.98;;;2.67;;
50773;SDS011;36745;48.544;8.918;2022-12-24T01:08:21;12.70;;;3.33;;
50773;SDS011;36745;48.544;8.918;2022-12-24T01:11:40;8.30;;;2.78;;
50773;SDS011;36745;48.544;8.918;2022-12-24T01:15:00;11.20;;;2.42;;
50773;SDS011;36745;48.544;8.918;2022-12-24T01:18:21;13.52;;;2.33;;
50773;SDS011;36745;48.544;8.918;2022-12-24T01:21:41;7.65;;;2.17;;
50773;SDS011;36745;48.544;8.918;2022-12-24T01:25:01;10.85;;;2.88;;
50773;SDS011;36745;48.544;8.918;2022-12-24T01:28:21;12.70;;;2.60;;
50773;SDS011;36745;48.544;8.918;2022-12-24T01:31:41;6.35;;;2.40;;
50773;SDS011;36745;48.544;8.918;2022-12-24T01:35:01;9.55;;;2.15;;
50773;SDS011;36745;48.544;8.918;2022-12-24T01:38:20;9.48;;;2.33;;
50773;SDS011;36745;48.544;8.918;2022-12-24T01:41:40;7.63;;;2.70;;
50773;SDS011;36745;48.544;8.918;2022-12-24T01:49:02;14.53;;;2.00;;
50773;SDS011;36745;48.544;8.918;2022-12-24T01:52:29;8.80;;;2.03;;
50773;SDS011;36745;48.544;8.918;2022-12-24T01:55:52;10.85;;;2.25;;
50773;SDS011;36745;48.544;8.918;2022-12-24T01:59:13;15.15;;;2.80;;
50773;SDS011;36745;48.544;8.918;2022-12-24T02:02:37;14.30;;;2.50;;
50773;SDS011;36745;48.544;8.918;2022-12-24T02:06:00;8.10;;;2.45;;
50773;SDS011;36745;48.544;8.918;2022-12-24T02:09:20;10.50;;;2.13;;
50773;SDS011;36745;48.544;8.918;2022-12-24T02:12:40;13.20;;;2.55;;
50773;SDS011;36745;48.544;8.918;2022-12-24T02:16:06;12.32;;;2.15;;
50773;SDS011;36745;48.544;8.918;2022-12-24T02:23:32;15.52;;;2.80;;
50773;SDS011;36745;48.544;8.918;2022-12-24T02:27:16;19.17;;;6.57;;
50773;SDS011;36745;48.544;8.918;2022-12-24T02:30:39;22.70;;;6.88;;
50773;SDS011;36745;48.544;8.918;2022-12-24T02:37:29;23.65;;;7.40;;
50773;SDS011;36745;48.544;8.918;2022-12-24T02:40:57;24.63;;;7.70;;
50773;SDS011;36745;48.544;8.918;2022-12-24T02:44:24;29.33;;;8.60;;
50773;SDS011;36745;48.544;8.918;2022-12-24T02:47:46;16.75;;;5.88;;
50773;SDS011;36745;48.544;8.918;2022-12-24T02:51:09;23.35;;;8.00;;
50773;SDS011;36745;48.544;8.918;2022-12-24T02:54:29;18.20;;;5.45;;
50773;SDS011;36745;48.544;8.918;2022-12-24T03:01:47;58.67;;;21.65;;
50773;SDS011;36745;48.544;8.918;2022-12-24T03:05:26;28.30;;;9.82;;
50773;SDS011;36745;48.544;8.918;2022-12-24T03:09:05;77.85;;;27.65;;
50773;SDS011;36745;48.544;8.918;2022-12-24T03:12:49;46.17;;;17.05;;
50773;SDS011;36745;48.544;8.918;2022-12-24T03:16:14;34.00;;;10.93;;
50773;SDS011;36745;48.544;8.918;2022-12-24T03:19:39;20.80;;;5.80;;
50773;SDS011;36745;48.544;8.918;2022-12-24T03:22:59;8.75;;;2.65;;
50773;SDS011;36745;48.544;8.918;2022-12-24T03:26:19;13.43;;;3.83;;
50773;SDS011;36745;48.544;8.918;2022-12-24T03:29:40;5.78;;;2.40;;
50773;SDS011;36745;48.544;8.918;2022-12-24T03:33:00;11.32;;;2.72;;
50773;SDS011;36745;48.544;8.918;2022-12-24T03:36:20;10.05;;;2.40;;
50773;SDS011;36745;48.544;8.918;2022-12-24T03:39:40;14.27;;;2.95;;
50773;SDS011;36745;48.544;8.918;2022-12-24T03:42:59;11.95;;;3.17;;
50773;SDS011;36745;48.544;8.918;2022-12-24T03:46:19;30.20;;;9.15;;
50773;SDS011;36745;48.544;8.918;2022-12-24T03:49:39;67.65;;;23.17;;
50773;SDS011;36745;48.544;8.918;2022-12-24T03:52:59;34.85;;;12.60;;
50773;SDS011;36745;48.544;8.918;2022-12-24T03:56:19;29.45;;;9.52;;
50773;SDS011;36745;48.544;8.918;2022-12-24T03:59:39;17.70;;;5.05;;
50773;SDS011;36745;48.544;8.918;2022-12-24T04:02:59;15.75;;;4.93;;
50773;SDS011;36745;48.544;8.918;2022-12-24T04:06:18;31.80;;;8.57;;
50773;SDS011;36745;48.544;8.918;2022-12-24T04:09:38;33.53;;;9.50;;
50773;SDS011;36745;48.544;8.918;2022-12-24T04:12:59;30.20;;;9.02;;
50773;SDS011;36745;48.544;8.918;2022-12-24T04:16:18;23.83;;;7.45;;
50773;SDS011;36745;48.544;8.918;2022-12-24T04:19:38;24.67;;;8.00;;
50773;SDS011;36745;48.544;8.918;2022-12-24T04:22:58;20.55;;;5.53;;
50773;SDS011;36745;48.544;8.918;2022-12-24T04:26:18;18.52;;;4.82;;
50773;SDS011;36745;48.544;8.918;2022-12-24T04:29:38;15.70;;;4.38;;
50773;SDS011;36745;48.544;8.918;2022-12-24T04:32:57;10.75;;;3.10;;
50773;SDS011;36745;48.544;8.918;2022-12-24T04:36:18;11.05;;;2.47;;
50773;SDS011;36745;48.544;8.918;2022-12-24T04:39:38;11.73;;;2.78;;
50773;SDS011;36745;48.544;8.918;2022-12-24T04:42:58;14.68;;;2.58;;
50773;SDS011;36745;48.544;8.918;2022-12-24T04:46:19;10.75;;;2.72;;
50773;SDS011;36745;48.544;8.918;2022-12-24T04:49:40;12.15;;;2.85;;
50773;SDS011;36745;48.544;8.918;2022-12-24T04:53:00;8.80;;;2.20;;
50773;SDS011;36745;48.544;8.918;2022-12-24T04:56:25;13.23;;;2.65;;
50773;SDS011;36745;48.544;8.918;2022-12-24T04:59:45;14.00;;;2.78;;
50773;SDS011;36745;48.544;8.918;2022-12-24T05:03:05;11.13;;;2.70;;
50773;SDS011;36745;48.544;8.918;2022-12-24T05:06:27;12.43;;;2.90;;
50773;SDS011;36745;48.544;8.918;2022-12-24T05:09:49;11.18;;;2.42;;
50773;SDS011;36745;48.544;8.918;2022-12-24T05:13:09;13.80;;;2.25;;
50773;SDS011;36745;48.544;8.918;2022-12-24T05:16:29;10.27;;;2.38;;
50773;SDS011;36745;48.544;8.918;2022-12-24T05:19:48;7.93;;;2.50;;
50773;SDS011;36745;48.544;8.918;2022-12-24T05:23:09;11.68;;;3.20;;
50773;SDS011;36745;48.544;8.918;2022-12-24T05:26:53;13.68;;;3.47;;
50773;SDS011;36745;48.544;8.918;2022-12-24T05:30:15;11.27;;;2.70;;
50773;SDS011;36745;48.544;8.918;2022-12-24T05:33:35;16.40;;;3.10;;
50773;SDS011;36745;48.544;8.918;2022-12-24T05:36:54;12.25;;;3.10;;
50773;SDS011;36745;48.544;8.918;2022-12-24T05:40:14;11.93;;;2.95;;
50773;SDS011;36745;48.544;8.918;2022-12-24T05:43:35;13.32;;;2.80;;
50773;SDS011;36745;48.544;8.918;2022-12-24T05:46:55;12.05;;;2.60;;
50773;SDS011;36745;48.544;8.918;2022-12-24T05:50:15;9.88;;;3.75;;
50773;SDS011;36745;48.544;8.918;2022-12-24T05:53:35;10.23;;;2.55;;
50773;SDS011;36745;48.544;8.918;2022-12-24T05:56:55;9.65;;;2.58;;
50773;SDS011;36745;48.544;8.918;2022-12-24T06:00:15;16.15;;;3.13;;
50773;SDS011;36745;48.544;8.918;2022-12-24T06:03:35;11.95;;;2.85;;
50773;SDS011;36745;48.544;8.918;2022-12-24T06:06:55;15.20;;;3.85;;
50773;SDS011;36745;48.544;8.918;2022-12-24T06:10:15;17.50;;;4.15;;
50773;SDS011;36745;48.544;8.918;2022-12-24T06:13:35;13.52;;;3.72;;
50773;SDS011;36745;48.544;8.918;2022-12-24T06:16:55;13.60;;;5.32;;
50773;SDS011;36745;48.544;8.918;2022-12-24T06:20:15;8.50;;;3.25;;
50773;SDS011;36745;48.544;8.918;2022-12-24T06:23:35;15.57;;;3.72;;
50773;SDS011;36745;48.544;8.918;2022-12-24T06:26:56;9.82;;;2.83;;
50773;SDS011;36745;48.544;8.918;2022-12-24T06:30:16;16.10;;;3.17;;
50773;SDS011;36745;48.544;8.918;2022-12-24T06:33:36;14.70;;;2.67;;
50773;SDS011;36745;48.544;8.918;2022-12-24T06:36:56;17.23;;;2.92;;
50773;SDS011;36745;48.544;8.918;2022-12-24T06:40:16;34.70;;;12.95;;
50773;SDS011;36745;48.544;8.918;2022-12-24T06:43:36;13.38;;;4.97;;
50773;SDS011;36745;48.544;8.918;2022-12-24T06:46:56;59.92;;;25.60;;
50773;SDS011;36745;48.544;8.918;2022-12-24T06:50:15;68.35;;;28.80;;
50773;SDS011;36745;48.544;8.918;2022-12-24T06:53:35;90.07;;;39.00;;
50773;SDS011;36745;48.544;8.918;2022-12-24T06:56:55;76.63;;;34.80;;
50773;SDS011;36745;48.544;8.918;2022-12-24T07:00:15;26.27;;;10.68;;
50773;SDS011;36745;48.544;8.918;2022-12-24T07:03:35;22.17;;;7.53;;
50773;SDS011;36745;48.544;8.918;2022-12-24T07:06:55;20.48;;;6.57;;
50773;SDS011;36745;48.544;8.918;2022-12-24T07:10:15;14.73;;;5.32;;
50773;SDS011;36745;48.544;8.918;2022-12-24T07:13:35;20.20;;;6.93;;
50773;SDS011;36745;48.544;8.918;2022-12-24T07:16:55;10.88;;;2.83;;
50773;SDS011;36745;48.544;8.918;2022-12-24T07:20:16;11.55;;;3.38;;
50773;SDS011;36745;48.544;8.918;2022-12-24T07:23:36;12.45;;;2.40;;
50773;SDS011;36745;48.544;8.918;2022-12-24T07:26:59;15.20;;;3.25;;
50773;SDS011;36745;48.544;8.918;2022-12-24T07:30:18;14.30;;;2.65;;
50773;SDS011;36745;48.544;8.918;2022-12-24T07:33:38;9.70;;;2.40;;
50773;SDS011;36745;48.544;8.918;2022-12-24T07:36:58;12.98;;;2.45;;
50773;SDS011;36745;48.544;8.918;2022-12-24T07:40:18;16.48;;;2.58;;
50773;SDS011;36745;48.544;8.918;2022-12-24T07:43:38;16.63;;;2.78;;
50773;SDS011;36745;48.544;8.918;2022-12-24T07:46:57;16.77;;;4.57;;
50773;SDS011;36745;48.544;8.918;2022-12-24T07:50:17;28.40;;;8.70;;
50773;SDS011;36745;48.544;8.918;2022-12-24T07:53:37;27.83;;;6.40;;
50773;SDS011;36745;48.544;8.918;2022-12-24T07:56:57;15.00;;;3.92;;
50773;SDS011;36745;48.544;8.918;2022-12-24T08:00:16;14.45;;;2.40;;
50773;SDS011;36745;48.544;8.918;2022-12-24T08:03:37;13.75;;;2.65;;
50773;SDS011;36745;48.544;8.918;2022-12-24T08:06:56;14.27;;;3.20;;
50773;SDS011;36745;48.544;8.918;2022-12-24T08:10:16;13.18;;;3.10;;
50773;SDS011;36745;48.544;8.918;2022-12-24T08:13:36;16.38;;;2.80;;
50773;SDS011;36745;48.544;8.918;2022-12-24T08:16:56;18.98;;;3.00;;
50773;SDS011;36745;48.544;8.918;2022-12-24T08:20:16;15.43;;;2.72;;
50773;SDS011;36745;48.544;8.918;2022-12-24T08:23:36;14.32;;;3.80;;
50773;SDS011;36745;48.544;8.918;2022-12-24T08:26:55;16.25;;;5.00;;
50773;SDS011;36745;48.544;8.918;2022-12-24T08:30:15;20.08;;;6.10;;
50773;SDS011;36745;48.544;8.918;2022-12-24T08:33:35;74.15;;;31.10;;
50773;SDS011;36745;48.544;8.918;2022-12-24T08:36:55;55.05;;;31.15;;
50773;SDS011;36745;48.544;8.918;2022-12-24T08:40:15;34.03;;;19.23;;
50773;SDS011;36745;48.544;8.918;2022-12-24T08:43:35;14.93;;;7.65;;
50773;SDS011;36745;48.544;8.918;2022-12-24T08:46:55;29.98;;;14.52;;
50773;SDS011;36745;48.544;8.918;2022-12-24T08:50:14;69.82;;;44.53;;
50773;SDS011;36745;48.544;8.918;2022-12-24T08:53:34;21.63;;;7.63;;
50773;SDS011;36745;48.544;8.918;2022-12-24T08:56:54;17.67;;;6.22;;
50773;SDS011;36745;48.544;8.918;2022-12-24T09:00:14;15.23;;;5.68;;
50773;SDS011;36745;48.544;8.918;2022-12-24T09:03:34;14.98;;;5.15;;
50773;SDS011;36745;48.544;8.918;2022-12-24T09:06:53;15.77;;;5.72;;
50773;SDS011;36745;48.544;8.918;2022-12-24T09:10:13;16.17;;;5.43;;
50773;SDS011;36745;48.544;8.918;2022-12-24T09:13:33;16.10;;;6.95;;
50773;SDS011;36745;48.544;8.918;2022-12-24T09:16:53;22.67;;;7.47;;
50773;SDS011;36745;48.544;8.918;2022-12-24T09:20:13;24.10;;;8.30;;
50773;SDS011;36745;48.544;8.918;2022-12-24T09:23:36;21.10;;;8.18;;
50773;SDS011;36745;48.544;8.918;2022-12-24T09:26:59;16.33;;;6.40;;
50773;SDS011;36745;48.544;8.918;2022-12-24T09:30:19;16.08;;;4.40;;
50773;SDS011;36745;48.544;8.918;2022-12-24T09:33:40;13.25;;;4.22;;
50773;SDS011;36745;48.544;8.918;2022-12-24T09:37:00;17.40;;;3.65;;
50773;SDS011;36745;48.544;8.918;2022-12-24T09:40:23;22.73;;;5.38;;
50773;SDS011;36745;48.544;8.918;2022-12-24T09:43:49;19.20;;;8.90;;
50773;SDS011;36745;48.544;8.918;2022-12-24T09:47:21;22.98;;;5.35;;
50773;SDS011;36745;48.544;8.918;2022-12-24T09:51:15;11.73;;;3.33;;
50773;SDS011;36745;48.544;8.918;2022-12-24T09:54:37;13.55;;;3.58;;
50773;SDS011;36745;48.544;8.918;2022-12-24T09:58:05;15.55;;;2.83;;
50773;SDS011;36745;48.544;8.918;2022-12-24T10:01:36;20.08;;;4.13;;
50773;SDS011;36745;48.544;8.918;2022-12-24T10:04:56;12.00;;;3.30;;
50773;SDS011;36745;48.544;8.918;2022-12-24T10:08:19;18.55;;;4.88;;
50773;SDS011;36745;48.544;8.918;2022-12-24T10:15:45;26.42;;;7.93;;
50773;SDS011;36745;48.544;8.918;2022-12-24T10:19:13;30.00;;;9.80;;
50773;SDS011;36745;48.544;8.918;2022-12-24T10:26:14;16.17;;;3.03;;
50773;SDS011;36745;48.544;8.918;2022-12-24T10:29:39;14.27;;;3.83;;
50773;SDS011;36745;48.544;8.918;2022-12-24T10:36:30;16.77;;;6.65;;
50773;SDS011;36745;48.544;8.918;2022-12-24T10:39:50;24.75;;;5.95;;
50773;SDS011;36745;48.544;8.918;2022-12-24T10:43:15;19.17;;;4.95;;
50773;SDS011;36745;48.544;8.918;2022-12-24T10:46:37;22.92;;;7.07;;
50773;SDS011;36745;48.544;8.918;2022-12-24T10:50:09;15.82;;;3.92;;
50773;SDS011;36745;48.544;8.918;2022-12-24T10:53:55;38.47;;;14.57;;
50773;SDS011;36745;48.544;8.918;2022-12-24T10:57:24;21.88;;;7.40;;
50773;SDS011;36745;48.544;8.918;2022-12-24T11:00:49;18.95;;;3.80;;
50773;SDS011;36745;48.544;8.918;2022-12-24T11:04:20;13.35;;;2.83;;
50773;SDS011;36745;48.544;8.918;2022-12-24T11:07:42;18.27;;;3.60;;
50773;SDS011;36745;48.544;8.918;2022-12-24T11:11:18;13.95;;;3.85;;
50773;SDS011;36745;48.544;8.918;2022-12-24T11:14:39;15.82;;;3.03;;
50773;SDS011;36745;48.544;8.918;2022-12-24T11:18:00;11.35;;;3.03;;
50773;SDS011;36745;48.544;8.918;2022-12-24T11:21:32;11.23;;;2.67;;
50773;SDS011;36745;48.544;8.918;2022-12-24T11:24:57;12.32;;;3.10;;
50773;SDS011;36745;48.544;8.918;2022-12-24T11:28:28;19.20;;;2.92;;
50773;SDS011;36745;48.544;8.918;2022-12-24T11:31:50;13.93;;;2.70;;
50773;SDS011;36745;48.544;8.918;2022-12-24T11:35:15;10.55;;;2.17;;
50773;SDS011;36745;48.544;8.918;2022-12-24T11:38:37;10.00;;;2.90;;
50773;SDS011;36745;48.544;8.918;2022-12-24T11:41:57;10.10;;;2.75;;
50773;SDS011;36745;48.544;8.918;2022-12-24T11:45:24;9.25;;;2.80;;
50773;SDS011;36745;48.544;8.918;2022-12-24T11:48:47;12.68;;;2.72;;
50773;SDS011;36745;48.544;8.918;2022-12-24T11:52:23;12.65;;;2.88;;
50773;SDS011;36745;48.544;8.918;2022-12-24T11:55:44;14.63;;;3.55;;
50773;SDS011;36745;48.544;8.918;2022-12-24T11:59:18;10.45;;;2.42;;
50773;SDS011;36745;48.544;8.918;2022-12-24T12:02:47;13.43;;;3.17;;
50773;SDS011;36745;48.544;8.918;2022-12-24T12:06:15;13.10;;;2.65;;
50773;SDS011;36745;48.544;8.918;2022-12-24T12:13:22;14.13;;;2.70;;
50773;SDS011;36745;48.544;8.918;2022-12-24T12:16:59;11.90;;;2.75;;
50773;SDS011;36745;48.544;8.918;2022-12-24T12:20:46;13.35;;;2.50;;
50773;SDS011;36745;48.544;8.918;2022-12-24T12:24:33;12.00;;;2.78;;
50773;SDS011;36745;48.544;8.918;2022-12-24T12:28:01;14.48;;;3.47;;
50773;SDS011;36745;48.544;8.918;2022-12-24T12:31:26;11.43;;;2.80;;
50773;SDS011;36745;48.544;8.918;2022-12-24T12:35:04;12.95;;;2.85;;
50773;SDS011;36745;48.544;8.918;2022-12-24T12:38:41;11.18;;;3.08;;
50773;SDS011;36745;48.544;8.918;2022-12-24T12:42:13;16.05;;;2.70;;
50773;SDS011;36745;48.544;8.918;2022-12-24T12:45:54;12.60;;;2.47;;
50773;SDS011;36745;48.544;8.918;2022-12-24T12:49:25;12.55;;;2.88;;
50773;SDS011;36745;48.544;8.918;2022-12-24T12:57:05;12.90;;;2.80;;
50773;SDS011;36745;48.544;8.918;2022-12-24T13:00:30;12.80;;;2.90;;
50773;SDS011;36745;48.544;8.918;2022-12-24T13:07:20;11.75;;;2.63;;
50773;SDS011;36745;48.544;8.918;2022-12-24T13:10:59;10.77;;;2.95;;
50773;SDS011;36745;48.544;8.918;2022-12-24T13:22:13;14.93;;;2.80;;
50773;SDS011;36745;48.544;8.918;2022-12-24T13:25:37;16.58;;;3.17;;
50773;SDS011;36745;48.544;8.918;2022-12-24T13:29:28;14.73;;;2.63;;
50773;SDS011;36745;48.544;8.918;2022-12-24T13:32:50;7.93;;;2.25;;
50773;SDS011;36745;48.544;8.918;2022-12-24T13:36:15;14.07;;;3.08;;
50773;SDS011;36745;48.544;8.918;2022-12-24T13:43:24;13.30;;;3.72;;
50773;SDS011;36745;48.544;8.918;2022-12-24T13:50:20;13.45;;;4.25;;
50773;SDS011;36745;48.544;8.918;2022-12-24T13:53:43;18.52;;;5.95;;
50773;SDS011;36745;48.544;8.918;2022-12-24T14:01:00;16.97;;;4.63;;
50773;SDS011;36745;48.544;8.918;2022-12-24T14:04:25;13.70;;;7.05;;
50773;SDS011;36745;48.544;8.918;2022-12-24T14:07:48;22.63;;;9.65;;
50773;SDS011;36745;48.544;8.918;2022-12-24T14:11:16;17.40;;;7.10;;
50773;SDS011;36745;48.544;8.918;2022-12-24T14:14:38;15.80;;;5.75;;
50773;SDS011;36745;48.544;8.918;2022-12-24T14:17:59;17.00;;;5.18;;
50773;SDS011;36745;48.544;8.918;2022-12-24T14:21:54;11.23;;;4.43;;
50773;SDS011;36745;48.544;8.918;2022-12-24T14:25:23;15.82;;;5.05;;
50773;SDS011;36745;48.544;8.918;2022-12-24T14:29:06;15.07;;;5.07;;
50773;SDS011;36745;48.544;8.918;2022-12-24T14:32:35;19.20;;;4.63;;
50773;SDS011;36745;48.544;8.918;2022-12-24T14:35:58;18.92;;;4.20;;
50773;SDS011;36745;48.544;8.918;2022-12-24T14:39:36;11.07;;;3.55;;
50773;SDS011;36745;48.544;8.918;2022-12-24T14:46:48;17.73;;;4.75;;
50773;SDS011;36745;48.544;8.918;2022-12-24T14:57:39;18.77;;;6.22;;
50773;SDS011;36745;48.544;8.918;2022-12-24T15:01:00;14.13;;;6.03;;
50773;SDS011;36745;48.544;8.918;2022-12-24T15:04:22;13.18;;;5.38;;
50773;SDS011;36745;48.544;8.918;2022-12-24T15:08:07;15.77;;;5.63;;
50773;SDS011;36745;48.544;8.918;2022-12-24T15:11:26;14.88;;;5.35;;
50773;SDS011;36745;48.544;8.918;2022-12-24T15:14:46;12.73;;;4.80;;
50773;SDS011;36745;48.544;8.918;2022-12-24T15:18:09;17.02;;;5.05;;
50773;SDS011;36745;48.544;8.918;2022-12-24T15:21:36;12.77;;;5.20;;
50773;SDS011;36745;48.544;8.918;2022-12-24T15:24:59;13.35;;;3.38;;
50773;SDS011;36745;48.544;8.918;2022-12-24T15:28:21;12.65;;;4.30;;
50773;SDS011;36745;48.544;8.918;2022-12-24T15:31:42;24.42;;;7.65;;
50773;SDS011;36745;48.544;8.918;2022-12-24T15:35:02;34.05;;;15.20;;
50773;SDS011;36745;48.544;8.918;2022-12-24T15:38:32;26.88;;;10.13;;
50773;SDS011;36745;48.544;8.918;2022-12-24T15:41:56;27.77;;;9.82;;
50773;SDS011;36745;48.544;8.918;2022-12-24T15:45:31;11.82;;;5.32;;
50773;SDS011;36745;48.544;8.918;2022-12-24T15:49:01;11.68;;;4.88;;
50773;SDS011;36745;48.544;8.918;2022-12-24T15:52:22;17.13;;;5.78;;
50773;SDS011;36745;48.544;8.918;2022-12-24T15:55:44;23.23;;;8.10;;
50773;SDS011;36745;48.544;8.918;2022-12-24T16:02:47;25.75;;;10.93;;
50773;SDS011;36745;48.544;8.918;2022-12-24T16:06:08;30.98;;;14.27;;
50773;SDS011;36745;48.544;8.918;2022-12-24T16:12:54;31.50;;;12.00;;
50773;SDS011;36745;48.544;8.918;2022-12-24T16:16:14;21.52;;;9.20;;
50773;SDS011;36745;48.544;8.918;2022-12-24T16:19:36;23.13;;;9.15;;
50773;SDS011;36745;48.544;8.918;2022-12-24T16:22:57;20.67;;;10.43;;
50773;SDS011;36745;48.544;8.918;2022-12-24T16:26:17;21.58;;;11.50;;
50773;SDS011;36745;48.544;8.918;2022-12-24T16:29:37;20.75;;;10.93;;
50773;SDS011;36745;48.544;8.918;2022-12-24T16:32:57;17.73;;;10.75;;
50773;SDS011;36745;48.544;8.918;2022-12-24T16:36:16;16.67;;;7.93;;
50773;SDS011;36745;48.544;8.918;2022-12-24T16:39:36;14.02;;;6.50;;
50773;SDS011;36745;48.544;8.918;2022-12-24T16:42:56;15.25;;;6.60;;
50773;SDS011;36745;48.544;8.918;2022-12-24T16:46:34;12.35;;;5.63;;
50773;SDS011;36745;48.544;8.918;2022-12-24T16:49:55;22.08;;;10.32;;
50773;SDS011;36745;48.544;8.918;2022-12-24T16:53:16;11.23;;;4.38;;
50773;SDS011;36745;48.544;8.918;2022-12-24T16:56:41;11.35;;;4.65;;
50773;SDS011;36745;48.544;8.918;2022-12-24T17:00:02;12.00;;;4.50;;
50773;SDS011;36745;48.544;8.918;2022-12-24T17:03:24;13.30;;;6.53;;
50773;SDS011;36745;48.544;8.918;2022-12-24T17:06:44;13.82;;;5.13;;
50773;SDS011;36745;48.544;8.918;2022-12-24T17:10:10;10.50;;;5.47;;
50773;SDS011;36745;48.544;8.918;2022-12-24T17:13:32;17.40;;;9.63;;
50773;SDS011;36745;48.544;8.918;2022-12-24T17:16:52;17.63;;;6.55;;
50773;SDS011;36745;48.544;8.918;2022-12-24T17:20:12;12.55;;;6.20;;
50773;SDS011;36745;48.544;8.918;2022-12-24T17:23:31;18.55;;;8.98;;
50773;SDS011;36745;48.544;8.918;2022-12-24T17:26:51;15.20;;;7.28;;
50773;SDS011;36745;48.544;8.918;2022-12-24T17:30:11;13.00;;;4.55;;
50773;SDS011;36745;48.544;8.918;2022-12-24T17:33:31;13.35;;;5.65;;
50773;SDS011;36745;48.544;8.918;2022-12-24T17:36:51;10.32;;;5.28;;
50773;SDS011;36745;48.544;8.918;2022-12-24T17:40:11;10.52;;;5.03;;
50773;SDS011;36745;48.544;8.918;2022-12-24T17:43:34;13.35;;;5.57;;
50773;SDS011;36745;48.544;8.918;2022-12-24T17:46:55;14.98;;;6.35;;
50773;SDS011;36745;48.544;8.918;2022-12-24T17:50:15;10.13;;;6.07;;
50773;SDS011;36745;48.544;8.918;2022-12-24T17:53:38;13.45;;;6.82;;
50773;SDS011;36745;48.544;8.918;2022-12-24T17:56:59;17.65;;;7.53;;
50773;SDS011;36745;48.544;8.918;2022-12-24T18:00:19;22.92;;;9.70;;
50773;SDS011;36745;48.544;8.918;2022-12-24T18:03:39;27.25;;;14.70;;
50773;SDS011;36745;48.544;8.918;2022-12-24T18:07:00;24.73;;;11.68;;
50773;SDS011;36745;48.544;8.918;2022-12-24T18:10:20;16.30;;;8.15;;
50773;SDS011;36745;48.544;8.918;2022-12-24T18:13:40;13.13;;;7.85;;
50773;SDS011;36745;48.544;8.918;2022-12-24T18:17:01;18.38;;;12.90;;
50773;SDS011;36745;48.544;8.918;2022-12-24T18:20:21;24.08;;;15.45;;
50773;SDS011;36745;48.544;8.918;2022-12-24T18:23:41;24.02;;;12.95;;
50773;SDS011;36745;48.544;8.918;2022-12-24T18:27:02;31.27;;;17.55;;
50773;SDS011;36745;48.544;8.918;2022-12-24T18:30:22;28.42;;;18.42;;
50773;SDS011;36745;48.544;8.918;2022-12-24T18:33:42;21.08;;;12.27;;
50773;SDS011;36745;48.544;8.918;2022-12-24T18:37:02;16.98;;;10.85;;
50773;SDS011;36745;48.544;8.918;2022-12-24T18:40:22;10.30;;;7.97;;
50773;SDS011;36745;48.544;8.918;2022-12-24T18:43:42;10.00;;;5.32;;
50773;SDS011;36745;48.544;8.918;2022-12-24T18:47:02;7.22;;;5.10;;
50773;SDS011;36745;48.544;8.918;2022-12-24T18:50:21;6.25;;;4.05;;
50773;SDS011;36745;48.544;8.918;2022-12-24T18:53:41;7.30;;;3.10;;
50773;SDS011;36745;48.544;8.918;2022-12-24T18:57:01;7.68;;;3.63;;
50773;SDS011;36745;48.544;8.918;2022-12-24T19:00:21;39.88;;;23.58;;
50773;SDS011;36745;48.544;8.918;2022-12-24T19:03:41;16.92;;;8.32;;
50773;SDS011;36745;48.544;8.918;2022-12-24T19:07:01;17.08;;;10.65;;
50773;SDS011;36745;48.544;8.918;2022-12-24T19:10:21;11.00;;;7.32;;
50773;SDS011;36745;48.544;8.918;2022-12-24T19:13:43;7.75;;;3.88;;
50773;SDS011;36745;48.544;8.918;2022-12-24T19:17:05;9.50;;;5.50;;
50773;SDS011;36745;48.544;8.918;2022-12-24T19:20:25;10.30;;;5.88;;
50773;SDS011;36745;48.544;8.918;2022-12-24T19:23:44;11.38;;;5.50;;
50773;SDS011;36745;48.544;8.918;2022-12-24T19:27:05;6.78;;;3.97;;
50773;SDS011;36745;48.544;8.918;2022-12-24T19:30:25;9.00;;;5.40;;
50773;SDS011;36745;48.544;8.918;2022-12-24T19:33:46;11.95;;;5.93;;
50773;SDS011;36745;48.544;8.918;2022-12-24T19:37:08;8.95;;;6.75;;
50773;SDS011;36745;48.544;8.918;2022-12-24T19:40:27;14.35;;;6.22;;
50773;SDS011;36745;48.544;8.918;2022-12-24T19:43:48;12.95;;;7.88;;
50773;SDS011;36745;48.544;8.918;2022-12-24T19:47:09;10.10;;;7.38;;
50773;SDS011;36745;48.544;8.918;2022-12-24T19:50:30;15.15;;;6.38;;
50773;SDS011;36745;48.544;8.918;2022-12-24T19:53:49;12.73;;;7.20;;
50773;SDS011;36745;48.544;8.918;2022-12-24T19:57:10;17.08;;;8.65;;
50773;SDS011;36745;48.544;8.918;2022-12-24T20:00:30;16.48;;;8.35;;
50773;SDS011;36745;48.544;8.918;2022-12-24T20:03:50;17.15;;;9.40;;
50773;SDS011;36745;48.544;8.918;2022-12-24T20:07:11;15.27;;;8.30;;
50773;SDS011;36745;48.544;8.918;2022-12-24T20:10:31;23.00;;;14.68;;
50773;SDS011;36745;48.544;8.918;2022-12-24T20:13:51;18.63;;;11.20;;
50773;SDS011;36745;48.544;8.918;2022-12-24T20:17:15;22.63;;;13.40;;
50773;SDS011;36745;48.544;8.918;2022-12-24T20:20:35;18.08;;;11.20;;
50773;SDS011;36745;48.544;8.918;2022-12-24T20:23:54;32.42;;;17.67;;
50773;SDS011;36745;48.544;8.918;2022-12-24T20:27:14;22.17;;;12.98;;
50773;SDS011;36745;48.544;8.918;2022-12-24T20:30:34;30.63;;;19.50;;
50773;SDS011;36745;48.544;8.918;2022-12-24T20:33:55;28.85;;;17.90;;
50773;SDS011;36745;48.544;8.918;2022-12-24T20:37:16;30.92;;;19.17;;
50773;SDS011;36745;48.544;8.918;2022-12-24T20:40:38;25.10;;;16.33;;
50773;SDS011;36745;48.544;8.918;2022-12-24T20:43:59;18.85;;;13.25;;
50773;SDS011;36745;48.544;8.918;2022-12-24T20:47:19;14.55;;;9.25;;
50773;SDS011;36745;48.544;8.918;2022-12-24T20:50:39;15.02;;;9.07;;
50773;SDS011;36745;48.544;8.918;2022-12-24T20:53:59;15.90;;;9.45;;
50773;SDS011;36745;48.544;8.918;2022-12-24T20:57:20;12.43;;;8.07;;
50773;SDS011;36745;48.544;8.918;2022-12-24T21:00:40;12.73;;;9.07;;
50773;SDS011;36745;48.544;8.918;2022-12-24T21:04:00;11.52;;;7.93;;
50773;SDS011;36745;48.544;8.918;2022-12-24T21:07:22;11.63;;;6.38;;
50773;SDS011;36745;48.544;8.918;2022-12-24T21:10:44;22.00;;;13.60;;
50773;SDS011;36745;48.544;8.918;2022-12-24T21:14:05;15.07;;;8.87;;
50773;SDS011;36745;48.544;8.918;2022-12-24T21:17:25;18.23;;;12.13;;